Malabar, FL (32950)

5:59 AM EDT on October 31, 2014 (GMT -0400)
Brook Hollow | Change Station
CLOSE
Current Station
Personal Weather Station
Location: Malabar, FL
Elevation: 12 ft
Nearby Weather Stations

Elev 12 ft 28.01 °N, 80.60 °W | Updated 22 seconds ago

Overcast
Overcast
65.0 °F
Feels Like 65.0 °F
N
0.0
Wind Variable Wind from East
Gusts 0.0 mph

Today
High -- | Low -- °F
--% Chance of Precip.
Yesterday
High -- | Low -- °F
Precip. -- in
7:32 AM 6:38 PM
First Quarter, 53% visible
Pressure 29.82 in
Visibility 10.0 miles
Clouds Few 5500 ft
Overcast 7000 ft
Dew Point 63 °F
Humidity 92%
Rainfall 0.49 in
Snow Depth Not available.
UV 0 out of 12
Pollen 4.90 out of 12
Air Quality Not available.
Flu Activity Not available.
METAR KMLB 310953Z 00000KT 10SM FEW055 OVC070 21/19 A2982 RMK AO2 SLP097 T02110194

More Conditions Fewer Conditions

Pressure 29.82 in
Visibility 10.0 miles
Clouds Few 5500 ft
Overcast 7000 ft
Dew Point 63 °F
Humidity 92%
Rainfall 0.49 in
Snow Depth Not available.
UV 0 out of 12
Pollen 4.90 out of 12
Air Quality Not available.
Flu Activity Not available.
METAR KMLB 310953Z 00000KT 10SM FEW055 OVC070 21/19 A2982 RMK AO2 SLP097 T02110194

More Conditions Fewer Conditions

10-Day Weather Forecast

Almanac

Astronomy

Oct. 31, 2014 Rise Set
Actual Time
Civil Twilight
Nautical Twilight
Astronomical Twilight
Moon
Length of Visible Light
Length of Day
Tomorrow will be .
, % of the Moon is Illuminated

Today's Extremes

State Highs State Lows

Community

WunderPhotos

Upload Photos

1,766,577 photos uploaded!

WunderBlogs® & News

Nearby

Air Quality

  Air Quality AQ Index Pollutant
Not available.

Snow Depth

Station Depth Elevation

Earthquake Activity

City Distance Mag. Time & Date
Minimum magnitude displayed is 2.5.

Coastal Water Temperatures

Place Temperature

Nearby Weather Stations